Hovedside
METAR-TAF:

METAR-TAF

Lufthavner :

Örebro, Sverige

breddegrad: 59-14N, lengdegrad: 015-03E, høyde over havet: 57 m

Gjeldene værobservasjon

Denne rapporten ble laget for 31 minutter siden, klokken 20:20 UTC
Vind 11 kt fra Vest-sørvest
Temperatur 8°C
Luftfuktighet 81%
Trykk 1019 hPa
Sikt 10 km eller mer

METAR: ESOE 262020Z AUTO 25011KT 9999 NCD 08/05 Q1019

Tid: 22:51 (20:51 UTC)

Varsel

Denne rapporten ble laget for 3 timer og 21 minutter siden, klokken 17:30 UTC
Varsel gyldig fra 26. klokken 18 UTC til 26. klokken 21 UTC
Vind 10 kt fra Vest
Sikt 10 km eller mer
ingen skyer under 1500 m og ingen bygeskyer

TAF: ESOE 261730Z 2618/2621 27010KT CAVOK

Værobservasjoner og værvarsel for over 4000 flyplasser (METAR- og TAF-rapporter).

Tilgjengelige stasjoner er representert av de røde og gule prikkene på kartet.

Hold musepekeren over prikken for å se navnet på stasjonen.

Klikk så for å se værobservasjoner og -varsler.

For å forandre kartet kan du klikke på den grønne knappen med svart kryss for å zoome inn, på den grønne knappen med strek for å zoome ut, eller på de grønne pilene for å se tilstøtende kart.


METAR-TAF: